sensor_id;sensor_type;location;lat;lon;timestamp;pressure;altitude;pressure_sealevel;temperature;humidity
49611;BME280;35515;48.766;9.176;2023-11-21T00:01:02;97752.72;;;9.21;100.00
49611;BME280;35515;48.766;9.176;2023-11-21T00:03:29;97751.25;;;9.25;100.00
49611;BME280;35515;48.766;9.176;2023-11-21T00:05:56;97749.75;;;9.36;100.00
49611;BME280;35515;48.766;9.176;2023-11-21T00:08:22;97742.50;;;9.30;100.00
49611;BME280;35515;48.766;9.176;2023-11-21T00:10:49;97745.16;;;9.36;100.00
49611;BME280;35515;48.766;9.176;2023-11-21T00:13:16;97743.38;;;9.24;100.00
49611;BME280;35515;48.766;9.176;2023-11-21T00:15:43;97729.84;;;9.24;100.00
49611;BME280;35515;48.766;9.176;2023-11-21T00:18:11;97732.31;;;9.32;100.00
49611;BME280;35515;48.766;9.176;2023-11-21T00:20:37;97729.59;;;9.32;100.00
49611;BME280;35515;48.766;9.176;2023-11-21T00:23:04;97729.81;;;9.30;100.00
49611;BME280;35515;48.766;9.176;2023-11-21T00:25:30;97729.84;;;9.24;100.00
49611;BME280;35515;48.766;9.176;2023-11-21T00:27:57;97726.97;;;9.18;100.00
49611;BME280;35515;48.766;9.176;2023-11-21T00:30:24;97728.25;;;9.09;100.00
49611;BME280;35515;48.766;9.176;2023-11-21T00:32:50;97727.38;;;9.15;100.00
49611;BME280;35515;48.766;9.176;2023-11-21T00:35:18;97727.03;;;9.05;100.00
49611;BME280;35515;48.766;9.176;2023-11-21T00:37:45;97729.84;;;9.24;100.00
49611;BME280;35515;48.766;9.176;2023-11-21T00:40:12;97729.88;;;9.10;100.00
49611;BME280;35515;48.766;9.176;2023-11-21T00:42:40;97733.22;;;9.12;100.00
49611;BME280;35515;48.766;9.176;2023-11-21T00:45:08;97733.41;;;9.17;100.00
49611;BME280;35515;48.766;9.176;2023-11-21T00:47:35;97732.97;;;9.20;100.00
49611;BME280;35515;48.766;9.176;2023-11-21T00:50:01;97732.72;;;9.29;100.00
49611;BME280;35515;48.766;9.176;2023-11-21T00:52:29;97732.44;;;9.05;100.00
49611;BME280;35515;48.766;9.176;2023-11-21T00:54:56;97733.63;;;9.16;100.00
49611;BME280;35515;48.766;9.176;2023-11-21T00:57:25;97731.16;;;9.14;100.00
49611;BME280;35515;48.766;9.176;2023-11-21T00:59:51;97728.41;;;9.21;100.00
49611;BME280;35515;48.766;9.176;2023-11-21T01:02:18;97726.88;;;9.39;100.00
49611;BME280;35515;48.766;9.176;2023-11-21T01:04:44;97737.72;;;9.32;100.00
49611;BME280;35515;48.766;9.176;2023-11-21T01:07:13;97732.72;;;9.29;100.00
49611;BME280;35515;48.766;9.176;2023-11-21T01:09:41;97730.72;;;9.17;100.00
49611;BME280;35515;48.766;9.176;2023-11-21T01:12:09;97736.94;;;9.18;100.00
49611;BME280;35515;48.766;9.176;2023-11-21T01:14:36;97732.72;;;9.29;100.00
49611;BME280;35515;48.766;9.176;2023-11-21T01:17:03;97731.50;;;9.25;100.00
49611;BME280;35515;48.766;9.176;2023-11-21T01:19:30;97736.00;;;9.37;100.00
49611;BME280;35515;48.766;9.176;2023-11-21T01:21:57;97730.91;;;9.23;100.00
49611;BME280;35515;48.766;9.176;2023-11-21T01:24:24;97731.50;;;9.25;100.00
49611;BME280;35515;48.766;9.176;2023-11-21T01:26:52;97719.72;;;9.12;100.00
49611;BME280;35515;48.766;9.176;2023-11-21T01:29:18;97727.56;;;9.20;100.00
49611;BME280;35515;48.766;9.176;2023-11-21T01:31:45;97726.72;;;9.27;100.00
49611;BME280;35515;48.766;9.176;2023-11-21T01:34:12;97734.78;;;9.33;100.00
49611;BME280;35515;48.766;9.176;2023-11-21T01:36:39;97730.25;;;9.20;100.00
49611;BME280;35515;48.766;9.176;2023-11-21T01:39:08;97729.41;;;9.27;100.00
49611;BME280;35515;48.766;9.176;2023-11-21T01:41:40;97723.78;;;9.28;100.00
49611;BME280;35515;48.766;9.176;2023-11-21T01:44:10;97727.16;;;9.17;100.00
49611;BME280;35515;48.766;9.176;2023-11-21T01:46:38;97724.44;;;9.24;100.00
49611;BME280;35515;48.766;9.176;2023-11-21T01:49:05;97726.09;;;9.25;100.00
49611;BME280;35515;48.766;9.176;2023-11-21T01:51:31;97724.59;;;9.29;100.00
49611;BME280;35515;48.766;9.176;2023-11-21T01:53:58;97731.47;;;9.31;100.00
49611;BME280;35515;48.766;9.176;2023-11-21T01:56:25;97730.19;;;9.34;100.00
49611;BME280;35515;48.766;9.176;2023-11-21T01:58:54;97728.94;;;9.36;100.00
49611;BME280;35515;48.766;9.176;2023-11-21T02:01:23;97727.94;;;9.31;100.00
49611;BME280;35515;48.766;9.176;2023-11-21T02:03:51;97731.06;;;9.34;100.00
49611;BME280;35515;48.766;9.176;2023-11-21T02:06:17;97724.69;;;9.15;100.00
49611;BME280;35515;48.766;9.176;2023-11-21T02:08:44;97728.41;;;9.21;100.00
49611;BME280;35515;48.766;9.176;2023-11-21T02:11:11;97726.72;;;9.27;100.00
49611;BME280;35515;48.766;9.176;2023-11-21T02:13:39;97726.16;;;9.11;100.00
49611;BME280;35515;48.766;9.176;2023-11-21T02:16:08;97734.41;;;9.23;100.00
49611;BME280;35515;48.766;9.176;2023-11-21T02:18:36;97730.94;;;9.16;100.00
49611;BME280;35515;48.766;9.176;2023-11-21T02:21:04;97725.69;;;9.28;100.00
49611;BME280;35515;48.766;9.176;2023-11-21T02:23:32;97723.84;;;9.15;100.00
49611;BME280;35515;48.766;9.176;2023-11-21T02:25:59;97717.34;;;9.29;100.00
49611;BME280;35515;48.766;9.176;2023-11-21T02:28:29;97719.28;;;9.15;100.00
49611;BME280;35515;48.766;9.176;2023-11-21T02:30:56;97720.91;;;9.23;100.00
49611;BME280;35515;48.766;9.176;2023-11-21T02:33:24;97709.38;;;9.02;100.00
49611;BME280;35515;48.766;9.176;2023-11-21T02:35:50;97716.75;;;9.20;100.00
49611;BME280;35515;48.766;9.176;2023-11-21T02:38:20;97717.75;;;9.26;100.00
49611;BME280;35515;48.766;9.176;2023-11-21T02:40:47;97716.63;;;9.02;100.00
49611;BME280;35515;48.766;9.176;2023-11-21T02:43:14;97713.19;;;9.27;100.00
49611;BME280;35515;48.766;9.176;2023-11-21T02:45:40;97705.28;;;9.32;100.00
49611;BME280;35515;48.766;9.176;2023-11-21T02:48:07;97711.13;;;9.22;100.00
49611;BME280;35515;48.766;9.176;2023-11-21T02:50:34;97708.59;;;9.27;100.00
49611;BME280;35515;48.766;9.176;2023-11-21T02:53:00;97698.47;;;9.23;100.00
49611;BME280;35515;48.766;9.176;2023-11-21T02:55:27;97702.50;;;9.45;100.00
49611;BME280;35515;48.766;9.176;2023-11-21T02:57:55;97704.22;;;9.33;100.00
49611;BME280;35515;48.766;9.176;2023-11-21T03:00:22;97698.66;;;9.28;100.00
49611;BME280;35515;48.766;9.176;2023-11-21T03:02:51;97699.94;;;9.18;100.00
49611;BME280;35515;48.766;9.176;2023-11-21T03:05:18;97699.31;;;9.16;100.00
49611;BME280;35515;48.766;9.176;2023-11-21T03:07:45;97696.66;;;9.10;100.00
49611;BME280;35515;48.766;9.176;2023-11-21T03:10:11;97704.31;;;9.13;100.00
49611;BME280;35515;48.766;9.176;2023-11-21T03:12:38;97704.97;;;9.08;100.00
49611;BME280;35515;48.766;9.176;2023-11-21T03:15:07;97710.00;;;8.98;100.00
49611;BME280;35515;48.766;9.176;2023-11-21T03:17:35;97706.69;;;8.96;100.00
49611;BME280;35515;48.766;9.176;2023-11-21T03:20:01;97713.09;;;9.01;100.00
49611;BME280;35515;48.766;9.176;2023-11-21T03:22:29;97709.78;;;8.99;100.00
49611;BME280;35515;48.766;9.176;2023-11-21T03:24:55;97715.84;;;8.95;100.00
49611;BME280;35515;48.766;9.176;2023-11-21T03:27:22;97719.09;;;9.03;100.00
49611;BME280;35515;48.766;9.176;2023-11-21T03:29:48;97723.06;;;9.01;100.00
49611;BME280;35515;48.766;9.176;2023-11-21T03:32:17;97720.00;;;8.91;100.00
49611;BME280;35515;48.766;9.176;2023-11-21T03:34:54;97716.22;;;9.05;100.00
49611;BME280;35515;48.766;9.176;2023-11-21T03:37:21;97722.88;;;9.02;100.00
49611;BME280;35515;48.766;9.176;2023-11-21T03:39:48;97716.03;;;9.00;100.00
49611;BME280;35515;48.766;9.176;2023-11-21T03:42:14;97716.09;;;8.86;100.00
49611;BME280;35515;48.766;9.176;2023-11-21T03:44:41;97714.97;;;9.01;100.00
49611;BME280;35515;48.766;9.176;2023-11-21T03:47:07;97712.47;;;8.99;100.00
49611;BME280;35515;48.766;9.176;2023-11-21T03:49:35;97722.22;;;9.07;100.00
49611;BME280;35515;48.766;9.176;2023-11-21T03:52:02;97715.59;;;9.03;100.00
49611;BME280;35515;48.766;9.176;2023-11-21T03:54:28;97726.13;;;9.18;100.00
49611;BME280;35515;48.766;9.176;2023-11-21T03:56:55;97728.06;;;9.04;100.00
49611;BME280;35515;48.766;9.176;2023-11-21T03:59:21;97732.44;;;9.05;100.00
49611;BME280;35515;48.766;9.176;2023-11-21T04:01:49;97725.81;;;8.87;100.00
49611;BME280;35515;48.766;9.176;2023-11-21T04:04:16;97725.78;;;9.01;100.00
49611;BME280;35515;48.766;9.176;2023-11-21T04:06:44;97731.59;;;8.98;100.00
49611;BME280;35515;48.766;9.176;2023-11-21T04:09:10;97726.25;;;8.84;100.00
49611;BME280;35515;48.766;9.176;2023-11-21T04:11:37;97725.88;;;8.74;100.00
49611;BME280;35515;48.766;9.176;2023-11-21T04:14:04;97724.22;;;8.80;100.00
49611;BME280;35515;48.766;9.176;2023-11-21T04:16:30;97731.66;;;8.84;100.00
49611;BME280;35515;48.766;9.176;2023-11-21T04:18:57;97731.41;;;8.93;100.00
49611;BME280;35515;48.766;9.176;2023-11-21T04:21:23;97739.97;;;8.83;100.00
49611;BME280;35515;48.766;9.176;2023-11-21T04:23:51;97727.13;;;8.72;100.00
49611;BME280;35515;48.766;9.176;2023-11-21T04:26:18;97738.97;;;8.70;100.00
49611;BME280;35515;48.766;9.176;2023-11-21T04:28:44;97741.50;;;8.52;100.00
49611;BME280;35515;48.766;9.176;2023-11-21T04:31:11;97734.66;;;8.49;100.00
49611;BME280;35515;48.766;9.176;2023-11-21T04:33:37;97729.25;;;8.49;100.00
49611;BME280;35515;48.766;9.176;2023-11-21T04:36:04;97728.00;;;8.52;100.00
49611;BME280;35515;48.766;9.176;2023-11-21T04:38:31;97731.72;;;8.44;100.00
49611;BME280;35515;48.766;9.176;2023-11-21T04:40:59;97734.00;;;8.41;100.00
49611;BME280;35515;48.766;9.176;2023-11-21T04:43:26;97737.13;;;8.44;100.00
49611;BME280;35515;48.766;9.176;2023-11-21T04:45:52;97739.81;;;8.44;100.00
49611;BME280;35515;48.766;9.176;2023-11-21T04:48:19;97742.53;;;8.51;100.00
49611;BME280;35515;48.766;9.176;2023-11-21T04:50:45;97750.38;;;8.73;100.00
49611;BME280;35515;48.766;9.176;2023-11-21T04:53:12;97743.34;;;8.58;100.00
49611;BME280;35515;48.766;9.176;2023-11-21T04:55:39;97743.16;;;8.60;100.00
49611;BME280;35515;48.766;9.176;2023-11-21T04:58:08;97743.75;;;8.68;100.00
49611;BME280;35515;48.766;9.176;2023-11-21T05:00:34;97745.81;;;8.80;100.00
49611;BME280;35515;48.766;9.176;2023-11-21T05:03:01;97749.13;;;8.75;100.00
49611;BME280;35515;48.766;9.176;2023-11-21T05:05:28;97748.75;;;8.51;100.00
49611;BME280;35515;48.766;9.176;2023-11-21T05:07:56;97748.75;;;8.51;100.00
49611;BME280;35515;48.766;9.176;2023-11-21T05:10:22;97745.44;;;8.43;100.00
49611;BME280;35515;48.766;9.176;2023-11-21T05:12:49;97754.16;;;8.51;100.00
49611;BME280;35515;48.766;9.176;2023-11-21T05:15:17;97755.41;;;8.56;100.00
49611;BME280;35515;48.766;9.176;2023-11-21T05:17:44;97756.25;;;8.49;100.00
49611;BME280;35515;48.766;9.176;2023-11-21T05:20:11;97762.25;;;8.51;100.00
49611;BME280;35515;48.766;9.176;2023-11-21T05:22:39;97762.44;;;8.43;100.00
49611;BME280;35515;48.766;9.176;2023-11-21T05:25:06;97767.06;;;8.49;100.00
49611;BME280;35515;48.766;9.176;2023-11-21T05:27:34;97767.88;;;8.57;100.00
49611;BME280;35515;48.766;9.176;2023-11-21T05:30:01;97769.09;;;8.61;100.00
49611;BME280;35515;48.766;9.176;2023-11-21T05:32:29;97764.13;;;8.64;100.00
49611;BME280;35515;48.766;9.176;2023-11-21T05:34:55;97773.69;;;8.47;100.00
49611;BME280;35515;48.766;9.176;2023-11-21T05:37:22;97773.28;;;8.50;100.00
49611;BME280;35515;48.766;9.176;2023-11-21T05:39:49;97787.81;;;8.49;100.00
49611;BME280;35515;48.766;9.176;2023-11-21T05:42:15;97783.63;;;8.40;100.00
49611;BME280;35515;48.766;9.176;2023-11-21T05:44:42;97782.19;;;8.37;100.00
49611;BME280;35515;48.766;9.176;2023-11-21T05:47:09;97784.47;;;8.40;100.00
49611;BME280;35515;48.766;9.176;2023-11-21T05:49:37;97789.47;;;8.30;100.00
49611;BME280;35515;48.766;9.176;2023-11-21T05:52:04;97784.47;;;8.27;100.00
49611;BME280;35515;48.766;9.176;2023-11-21T05:54:31;97796.94;;;8.28;100.00
49611;BME280;35515;48.766;9.176;2023-11-21T05:56:58;97786.16;;;8.28;100.00
49611;BME280;35515;48.766;9.176;2023-11-21T05:59:25;97791.72;;;8.33;100.00
49611;BME280;35515;48.766;9.176;2023-11-21T06:01:51;97794.84;;;8.30;100.00
49611;BME280;35515;48.766;9.176;2023-11-21T06:04:19;97790.47;;;8.29;100.00
49611;BME280;35515;48.766;9.176;2023-11-21T06:06:50;97788.22;;;8.26;100.00
49611;BME280;35515;48.766;9.176;2023-11-21T06:09:17;97788.63;;;8.23;100.00
49611;BME280;35515;48.766;9.176;2023-11-21T06:11:43;97796.94;;;8.28;100.00
49611;BME280;35515;48.766;9.176;2023-11-21T06:14:10;97814.38;;;8.32;100.00
49611;BME280;35515;48.766;9.176;2023-11-21T06:16:36;97812.28;;;8.27;100.00
49611;BME280;35515;48.766;9.176;2023-11-21T06:19:03;97809.38;;;8.29;100.00
49611;BME280;35515;48.766;9.176;2023-11-21T06:21:30;97819.34;;;8.42;100.00
49611;BME280;35515;48.766;9.176;2023-11-21T06:23:59;97819.34;;;8.35;100.00
49611;BME280;35515;48.766;9.176;2023-11-21T06:26:26;97808.56;;;8.22;100.00
49611;BME280;35515;48.766;9.176;2023-11-21T06:28:53;97821.41;;;8.33;100.00
49611;BME280;35515;48.766;9.176;2023-11-21T06:31:20;97824.75;;;8.35;100.00
49611;BME280;35515;48.766;9.176;2023-11-21T06:33:47;97825.56;;;8.42;100.00
49611;BME280;35515;48.766;9.176;2023-11-21T06:36:13;97829.34;;;8.48;100.00
49611;BME280;35515;48.766;9.176;2023-11-21T06:38:40;97833.69;;;8.49;100.00
49611;BME280;35515;48.766;9.176;2023-11-21T06:41:07;97832.06;;;8.55;100.00
49611;BME280;35515;48.766;9.176;2023-11-21T06:43:34;97837.03;;;8.58;100.00
49611;BME280;35515;48.766;9.176;2023-11-21T06:46:01;97827.69;;;8.67;100.00
49611;BME280;35515;48.766;9.176;2023-11-21T06:48:27;97840.16;;;8.68;100.00
49611;BME280;35515;48.766;9.176;2023-11-21T06:50:55;97843.44;;;8.70;100.00
49611;BME280;35515;48.766;9.176;2023-11-21T06:53:21;97844.28;;;8.77;100.00
49611;BME280;35515;48.766;9.176;2023-11-21T06:55:48;97847.22;;;8.69;100.00
49611;BME280;35515;48.766;9.176;2023-11-21T06:58:16;97847.41;;;8.67;100.00
49611;BME280;35515;48.766;9.176;2023-11-21T07:00:42;97846.13;;;8.83;100.00
49611;BME280;35515;48.766;9.176;2023-11-21T07:03:11;97850.72;;;8.69;100.00
49611;BME280;35515;48.766;9.176;2023-11-21T07:05:38;97851.56;;;8.63;100.00
49611;BME280;35515;48.766;9.176;2023-11-21T07:08:05;97858.41;;;8.66;100.00
49611;BME280;35515;48.766;9.176;2023-11-21T07:10:32;97849.50;;;8.59;100.00
49611;BME280;35515;48.766;9.176;2023-11-21T07:13:00;97851.75;;;8.75;100.00
49611;BME280;35515;48.766;9.176;2023-11-21T07:15:28;97866.94;;;8.76;100.00
49611;BME280;35515;48.766;9.176;2023-11-21T07:17:54;97860.72;;;8.69;100.00
49611;BME280;35515;48.766;9.176;2023-11-21T07:20:21;97851.75;;;8.75;100.00
49611;BME280;35515;48.766;9.176;2023-11-21T07:22:47;97867.16;;;8.75;100.00
49611;BME280;35515;48.766;9.176;2023-11-21T07:25:14;97869.00;;;8.81;100.00
49611;BME280;35515;48.766;9.176;2023-11-21T07:27:41;97878.78;;;8.75;100.00
49611;BME280;35515;48.766;9.176;2023-11-21T07:30:08;97880.44;;;8.76;100.00
49611;BME280;35515;48.766;9.176;2023-11-21T07:32:36;97881.91;;;8.65;100.00
49611;BME280;35515;48.766;9.176;2023-11-21T07:35:05;97879.81;;;8.67;100.00
49611;BME280;35515;48.766;9.176;2023-11-21T07:37:33;97886.66;;;8.70;100.00
49611;BME280;35515;48.766;9.176;2023-11-21T07:39:59;97890.41;;;8.76;100.00
49611;BME280;35515;48.766;9.176;2023-11-21T07:42:26;97890.41;;;8.82;100.00
49611;BME280;35515;48.766;9.176;2023-11-21T07:44:52;97892.06;;;8.70;100.00
49611;BME280;35515;48.766;9.176;2023-11-21T07:47:19;97893.13;;;8.69;100.00
49611;BME280;35515;48.766;9.176;2023-11-21T07:49:47;97892.50;;;8.67;100.00
49611;BME280;35515;48.766;9.176;2023-11-21T07:52:13;97902.03;;;8.76;100.00
49611;BME280;35515;48.766;9.176;2023-11-21T07:54:41;97900.59;;;8.80;100.00
49611;BME280;35515;48.766;9.176;2023-11-21T07:57:07;97904.09;;;8.67;100.00
49611;BME280;35515;48.766;9.176;2023-11-21T07:59:36;97900.16;;;8.70;100.00
49611;BME280;35515;48.766;9.176;2023-11-21T08:02:03;97896.84;;;8.75;100.00
49611;BME280;35515;48.766;9.176;2023-11-21T08:04:29;97905.56;;;8.77;100.00
49611;BME280;35515;48.766;9.176;2023-11-21T08:06:58;97902.47;;;8.86;100.00
49611;BME280;35515;48.766;9.176;2023-11-21T08:09:25;97905.38;;;8.92;100.00
49611;BME280;35515;48.766;9.176;2023-11-21T08:11:52;97914.28;;;8.99;100.00
49611;BME280;35515;48.766;9.176;2023-11-21T08:14:19;97910.78;;;8.92;100.00
49611;BME280;35515;48.766;9.176;2023-11-21T08:16:45;97910.78;;;8.98;100.00
49611;BME280;35515;48.766;9.176;2023-11-21T08:19:12;97914.28;;;8.99;100.00
49611;BME280;35515;48.766;9.176;2023-11-21T08:21:39;97917.00;;;8.99;100.00
49611;BME280;35515;48.766;9.176;2023-11-21T08:24:07;97917.22;;;8.84;100.00
49611;BME280;35515;48.766;9.176;2023-11-21T08:26:36;97910.56;;;8.80;100.00
49611;BME280;35515;48.766;9.176;2023-11-21T08:29:02;97918.03;;;8.78;100.00
49611;BME280;35515;48.766;9.176;2023-11-21T08:31:29;97920.72;;;8.84;100.00
49611;BME280;35515;48.766;9.176;2023-11-21T08:33:55;97926.56;;;8.81;100.00
49611;BME280;35515;48.766;9.176;2023-11-21T08:36:22;97922.19;;;8.87;100.00
49611;BME280;35515;48.766;9.176;2023-11-21T08:38:49;97926.78;;;8.86;100.00
49611;BME280;35515;48.766;9.176;2023-11-21T08:41:18;97926.97;;;8.92;100.00
49611;BME280;35515;48.766;9.176;2023-11-21T08:43:47;97921.16;;;8.95;100.00
49611;BME280;35515;48.766;9.176;2023-11-21T08:46:14;97918.66;;;9.00;100.00
49611;BME280;35515;48.766;9.176;2023-11-21T08:48:42;97931.53;;;8.98;100.00
49611;BME280;35515;48.766;9.176;2023-11-21T08:51:10;97934.03;;;8.93;100.00
49611;BME280;35515;48.766;9.176;2023-11-21T08:53:37;97936.13;;;8.97;100.00
49611;BME280;35515;48.766;9.176;2023-11-21T08:56:04;97936.50;;;9.01;100.00
49611;BME280;35515;48.766;9.176;2023-11-21T08:58:32;97939.84;;;8.96;100.00
49611;BME280;35515;48.766;9.176;2023-11-21T09:00:59;97942.97;;;9.00;100.00
49611;BME280;35515;48.766;9.176;2023-11-21T09:03:25;97941.94;;;9.14;100.00
49611;BME280;35515;48.766;9.176;2023-11-21T09:05:51;97952.31;;;9.24;100.00
49611;BME280;35515;48.766;9.176;2023-11-21T09:08:18;97943.13;;;9.39;100.00
49611;BME280;35515;48.766;9.176;2023-11-21T09:10:45;97950.63;;;9.30;100.00
49611;BME280;35515;48.766;9.176;2023-11-21T09:13:12;97951.06;;;9.27;100.00
49611;BME280;35515;48.766;9.176;2023-11-21T09:15:40;97944.19;;;9.31;100.00
49611;BME280;35515;48.766;9.176;2023-11-21T09:18:07;97956.44;;;9.33;100.00
49611;BME280;35515;48.766;9.176;2023-11-21T09:20:33;97957.25;;;9.47;100.00
49611;BME280;35515;48.766;9.176;2023-11-21T09:23:00;97946.44;;;9.41;100.00
49611;BME280;35515;48.766;9.176;2023-11-21T09:25:26;97953.97;;;9.32;100.00
49611;BME280;35515;48.766;9.176;2023-11-21T09:27:54;97962.66;;;9.41;100.00
49611;BME280;35515;48.766;9.176;2023-11-21T09:30:21;97962.47;;;9.35;100.00
49611;BME280;35515;48.766;9.176;2023-11-21T09:32:51;97966.41;;;9.33;100.00
49611;BME280;35515;48.766;9.176;2023-11-21T09:35:17;97953.31;;;9.43;100.00
49611;BME280;35515;48.766;9.176;2023-11-21T09:37:44;97957.47;;;9.46;100.00
49611;BME280;35515;48.766;9.176;2023-11-21T09:40:11;97967.22;;;9.53;100.00
49611;BME280;35515;48.766;9.176;2023-11-21T09:42:43;97967.25;;;9.40;100.00
49611;BME280;35515;48.766;9.176;2023-11-21T09:45:19;97964.75;;;9.45;100.00
49611;BME280;35515;48.766;9.176;2023-11-21T09:47:50;97977.22;;;9.33;100.00
49611;BME280;35515;48.766;9.176;2023-11-21T09:50:18;97973.25;;;9.49;100.00
49611;BME280;35515;48.766;9.176;2023-11-21T09:52:51;97967.47;;;9.39;100.00
49611;BME280;35515;48.766;9.176;2023-11-21T09:55:21;97976.41;;;9.39;100.00
49611;BME280;35515;48.766;9.176;2023-11-21T09:57:48;97979.53;;;9.36;100.00
49611;BME280;35515;48.766;9.176;2023-11-21T10:00:16;97983.69;;;9.32;100.00
49611;BME280;35515;48.766;9.176;2023-11-21T10:02:45;97978.88;;;9.41;100.00
49611;BME280;35515;48.766;9.176;2023-11-21T10:05:13;97983.91;;;9.44;100.00
49611;BME280;35515;48.766;9.176;2023-11-21T10:07:42;97984.28;;;9.41;100.00
49611;BME280;35515;48.766;9.176;2023-11-21T10:10:10;97984.06;;;9.49;100.00
49611;BME280;35515;48.766;9.176;2023-11-21T10:12:37;97984.28;;;9.41;100.00
49611;BME280;35515;48.766;9.176;2023-11-21T10:15:07;97983.06;;;9.30;100.00
49611;BME280;35515;48.766;9.176;2023-11-21T10:17:38;97985.34;;;9.26;100.00
49611;BME280;35515;48.766;9.176;2023-11-21T10:20:08;97987.22;;;9.26;100.00
49611;BME280;35515;48.766;9.176;2023-11-21T10:22:40;97997.22;;;9.32;100.00
49611;BME280;35515;48.766;9.176;2023-11-21T10:25:08;97997.22;;;9.39;100.00
49611;BME280;35515;48.766;9.176;2023-11-21T10:27:34;97997.81;;;9.27;100.00
49611;BME280;35515;48.766;9.176;2023-11-21T10:30:01;97998.47;;;9.23;100.00
49611;BME280;35515;48.766;9.176;2023-11-21T10:32:28;97994.09;;;9.22;100.00
49611;BME280;35515;48.766;9.176;2023-11-21T10:34:57;97992.22;;;9.15;100.00
49611;BME280;35515;48.766;9.176;2023-11-21T10:37:25;97997.22;;;9.12;100.00
49611;BME280;35515;48.766;9.176;2023-11-21T10:39:58;97998.88;;;8.99;100.00
49611;BME280;35515;48.766;9.176;2023-11-21T10:42:24;97997.84;;;9.14;100.00
49611;BME280;35515;48.766;9.176;2023-11-21T10:44:52;98014.25;;;8.99;100.00
49611;BME280;35515;48.766;9.176;2023-11-21T10:47:19;98003.44;;;9.06;100.00
49611;BME280;35515;48.766;9.176;2023-11-21T10:52:51;98006.75;;;8.87;100.00
49611;BME280;35515;48.766;9.176;2023-11-21T10:55:19;98014.25;;;8.92;100.00
49611;BME280;35515;48.766;9.176;2023-11-21T10:57:49;98007.59;;;9.01;100.00
49611;BME280;35515;48.766;9.176;2023-11-21T11:00:18;97999.94;;;8.98;100.00
49611;BME280;35515;48.766;9.176;2023-11-21T11:02:48;97997.41;;;8.97;100.00
49611;BME280;35515;48.766;9.176;2023-11-21T11:05:19;98005.72;;;9.02;100.00
49611;BME280;35515;48.766;9.176;2023-11-21T11:07:48;98005.72;;;9.02;100.00
49611;BME280;35515;48.766;9.176;2023-11-21T11:10:19;98001.34;;;9.01;100.00
49611;BME280;35515;48.766;9.176;2023-11-21T11:12:48;97998.47;;;9.09;100.00
49611;BME280;35515;48.766;9.176;2023-11-21T11:15:15;98006.16;;;9.26;100.00
49611;BME280;35515;48.766;9.176;2023-11-21T11:17:42;98005.94;;;9.20;100.00
49611;BME280;35515;48.766;9.176;2023-11-21T11:20:12;97998.25;;;9.24;100.00
49611;BME280;35515;48.766;9.176;2023-11-21T11:22:45;97998.88;;;9.19;100.00
49611;BME280;35515;48.766;9.176;2023-11-21T11:25:28;97997.22;;;9.39;100.00
49611;BME280;35515;48.766;9.176;2023-11-21T11:28:03;97999.69;;;9.40;100.00
49611;BME280;35515;48.766;9.176;2023-11-21T11:30:41;98000.91;;;9.58;100.00
49611;BME280;35515;48.766;9.176;2023-11-21T11:33:18;98000.94;;;9.31;100.00
49611;BME280;35515;48.766;9.176;2023-11-21T11:35:56;98012.59;;;9.31;100.00
49611;BME280;35515;48.766;9.176;2023-11-21T11:38:31;97998.03;;;9.39;100.00
49611;BME280;35515;48.766;9.176;2023-11-21T11:41:01;98003.44;;;9.39;100.00
49611;BME280;35515;48.766;9.176;2023-11-21T11:43:29;97995.97;;;9.28;100.00
49611;BME280;35515;48.766;9.176;2023-11-21T11:45:58;98004.25;;;9.33;100.00
49611;BME280;35515;48.766;9.176;2023-11-21T11:48:25;98006.34;;;9.31;100.00
49611;BME280;35515;48.766;9.176;2023-11-21T11:51:02;98012.59;;;9.38;100.00
49611;BME280;35515;48.766;9.176;2023-11-21T11:53:34;98009.47;;;9.41;100.00
49611;BME280;35515;48.766;9.176;2023-11-21T11:59:25;98010.72;;;9.45;100.00
49611;BME280;35515;48.766;9.176;2023-11-21T12:01:52;98013.00;;;9.48;100.00
49611;BME280;35515;48.766;9.176;2023-11-21T12:04:25;98009.25;;;9.49;100.00
49611;BME280;35515;48.766;9.176;2023-11-21T12:07:01;98005.91;;;9.47;100.00
49611;BME280;35515;48.766;9.176;2023-11-21T12:09:31;97999.28;;;9.43;100.00
49611;BME280;35515;48.766;9.176;2023-11-21T12:11:58;98013.41;;;9.59;100.00
49611;BME280;35515;48.766;9.176;2023-11-21T12:14:26;98019.22;;;9.56;100.00
49611;BME280;35515;48.766;9.176;2023-11-21T12:16:54;98017.56;;;9.54;100.00
49611;BME280;35515;48.766;9.176;2023-11-21T12:19:20;98017.78;;;9.60;100.00
49611;BME280;35515;48.766;9.176;2023-11-21T12:21:48;98012.75;;;9.57;100.00
49611;BME280;35515;48.766;9.176;2023-11-21T12:24:15;98021.94;;;9.62;100.00
49611;BME280;35515;48.766;9.176;2023-11-21T12:26:43;98016.50;;;9.76;100.00
49611;BME280;35515;48.766;9.176;2023-11-21T12:29:10;98021.63;;;9.97;100.00
49611;BME280;35515;48.766;9.176;2023-11-21T12:31:38;98018.34;;;9.82;100.00
49611;BME280;35515;48.766;9.176;2023-11-21T12:34:06;98025.66;;;9.75;100.00
49611;BME280;35515;48.766;9.176;2023-11-21T12:36:34;98020.03;;;9.69;100.00
49611;BME280;35515;48.766;9.176;2023-11-21T12:39:02;98022.97;;;9.68;100.00
49611;BME280;35515;48.766;9.176;2023-11-21T12:41:29;98019.22;;;9.69;100.00
49611;BME280;35515;48.766;9.176;2023-11-21T12:43:56;98031.44;;;9.78;100.00
49611;BME280;35515;48.766;9.176;2023-11-21T12:46:23;98027.91;;;9.84;100.00
49611;BME280;35515;48.766;9.176;2023-11-21T12:48:52;98027.09;;;9.84;100.00
49611;BME280;35515;48.766;9.176;2023-11-21T12:51:19;98038.13;;;9.82;100.00
49611;BME280;35515;48.766;9.176;2023-11-21T12:53:47;98029.56;;;9.85;100.00
49611;BME280;35515;48.766;9.176;2023-11-21T12:56:14;98033.72;;;9.95;100.00
49611;BME280;35515;48.766;9.176;2023-11-21T12:58:45;98029.56;;;9.92;100.00
49611;BME280;35515;48.766;9.176;2023-11-21T13:01:16;98039.19;;;9.68;100.00
49611;BME280;35515;48.766;9.176;2023-11-21T13:03:47;98043.72;;;9.74;100.00
49611;BME280;35515;48.766;9.176;2023-11-21T13:06:17;98039.81;;;9.50;100.00
49611;BME280;35515;48.766;9.176;2023-11-21T13:08:50;98030.25;;;9.47;100.00